Time;durP1;ratioP1;P1;durP2;ratioP2;P2;SDS_P1;SDS_P2;PMS_P1;PMS_P2;Temp;Humidity;BMP_temperature;BMP_pressure;BME280_temperature;BME280_humidity;BME280_pressure;Samples;Min_cycle;Max_cycle;Signal;HPM_P1;HPM_P2
2023/08/11 00:01:27;;;;;;;0.82;0.68;;;17.10;99.90;;;;;;5088956;28;20044;-77
2023/08/11 00:03:53;;;;;;;;;;;17.00;99.90;;;;;;5089891;28;20067;-77
2023/08/11 00:06:18;;;;;;;0.73;0.70;;;17.00;99.90;;;;;;5073368;28;19924;-77
2023/08/11 00:08:44;;;;;;;1.15;1.00;;;16.90;99.90;;;;;;5090574;28;20036;-77
2023/08/11 00:11:12;;;;;;;0.93;0.90;;;16.80;99.90;;;;;;5110380;27;20048;-77
2023/08/11 00:13:38;;;;;;;1.20;0.95;;;16.70;99.90;;;;;;5090904;28;20044;-77
2023/08/11 00:16:04;;;;;;;;;;;16.60;99.90;;;;;;5090731;28;20044;-77
2023/08/11 00:18:30;;;;;;;1.00;0.88;;;16.50;99.90;;;;;;5074088;28;19941;-77
2023/08/11 00:20:58;;;;;;;1.23;1.05;;;16.40;99.90;;;;;;5090164;28;20080;-77
2023/08/11 00:23:24;;;;;;;1.48;1.00;;;16.40;99.90;;;;;;5090386;28;20040;-77
2023/08/11 00:25:50;;;;;;;;;;;16.30;99.90;;;;;;5090813;28;20050;-77
2023/08/11 00:28:16;;;;;;;1.10;0.93;;;16.20;99.90;;;;;;5124678;27;20274;-77
2023/08/11 00:30:41;;;;;;;;;;;16.20;99.90;;;;;;5074225;28;20512;-77
2023/08/11 00:33:07;;;;;;;0.95;0.77;;;16.10;99.90;;;;;;5090180;28;20347;-77
2023/08/11 00:35:33;;;;;;;1.38;0.80;;;16.00;99.90;;;;;;5089662;28;20036;-77
2023/08/11 00:37:58;;;;;;;1.42;0.95;;;15.90;99.90;;;;;;5090003;28;20094;-77
2023/08/11 00:40:24;;;;;;;1.35;1.00;;;15.80;99.90;;;;;;5073561;28;20040;-77
2023/08/11 00:42:50;;;;;;;1.08;0.95;;;15.80;99.90;;;;;;5090189;28;20047;-77
2023/08/11 00:45:16;;;;;;;;;;;15.70;99.90;;;;;;5090647;28;20048;-77
2023/08/11 00:47:43;;;;;;;1.35;1.00;;;15.70;99.90;;;;;;5089745;28;19950;-77
2023/08/11 00:50:10;;;;;;;1.10;0.93;;;15.60;99.90;;;;;;5089287;28;20044;-77
2023/08/11 00:52:38;;;;;;;1.10;1.00;;;15.50;99.90;;;;;;5089976;28;20032;-77
2023/08/11 00:55:04;;;;;;;1.10;0.75;;;15.40;99.90;;;;;;5075826;28;20680;-77
2023/08/11 00:57:31;;;;;;;1.13;0.90;;;15.40;99.90;;;;;;5072162;28;20768;-77
2023/08/11 00:59:59;;;;;;;1.00;0.90;;;15.40;99.90;;;;;;5088721;28;20164;-77
2023/08/11 01:02:24;;;;;;;1.63;1.13;;;15.30;99.90;;;;;;5089543;28;20075;-77
2023/08/11 01:04:50;;;;;;;1.30;1.00;;;15.30;99.90;;;;;;5072532;28;20086;-77
2023/08/11 01:07:32;;;;;;;1.08;0.98;;;15.30;99.90;;;;;;5086235;28;20166;-77
2023/08/11 01:10:12;;;;;;;1.67;1.00;;;15.20;99.90;;;;;;5089565;28;20036;-77
2023/08/11 01:12:56;;;;;;;1.38;0.93;;;15.20;99.90;;;;;;5072472;28;20036;-77
2023/08/11 01:15:21;;;;;;;1.10;1.00;;;15.10;99.90;;;;;;5077956;28;20509;-77
2023/08/11 01:17:49;;;;;;;1.65;0.90;;;15.00;99.90;;;;;;5088882;28;20072;-77
2023/08/11 01:20:16;;;;;;;1.02;0.88;;;15.00;99.90;;;;;;5089545;28;20381;-77
2023/08/11 01:22:49;;;;;;;0.80;0.80;;;15.00;99.90;;;;;;5089417;28;20075;-77
2023/08/11 01:25:16;;;;;;;1.00;0.90;;;15.00;99.90;;;;;;5089438;28;20551;-77
2023/08/11 01:27:47;;;;;;;1.05;0.90;;;14.90;99.90;;;;;;5089043;28;20440;-77
2023/08/11 01:30:14;;;;;;;1.90;1.08;;;14.80;99.90;;;;;;5089462;28;20184;-77
2023/08/11 01:32:40;;;;;;;1.10;1.00;;;14.80;99.90;;;;;;5089718;28;20066;-77
2023/08/11 01:35:06;;;;;;;0.98;0.80;;;14.80;99.90;;;;;;5102574;28;20550;-77
2023/08/11 01:37:32;;;;;;;1.00;0.90;;;14.80;99.90;;;;;;5085668;28;20036;-77
2023/08/11 01:39:58;;;;;;;;;;;14.70;99.90;;;;;;5089529;28;20047;-77
2023/08/11 01:42:24;;;;;;;1.30;0.93;;;14.70;99.90;;;;;;5089284;28;20574;-77
2023/08/11 01:44:50;;;;;;;;;;;14.70;99.90;;;;;;5089503;28;20064;-77
2023/08/11 01:47:18;;;;;;;2.08;1.38;;;14.70;99.90;;;;;;5123173;27;19924;-77
2023/08/11 01:49:44;;;;;;;1.70;1.30;;;14.70;99.90;;;;;;5089364;28;20044;-77
2023/08/11 01:52:10;;;;;;;1.30;1.20;;;14.80;99.90;;;;;;5089328;28;20051;-77
2023/08/11 01:54:36;;;;;;;2.03;1.52;;;14.80;99.90;;;;;;5089901;28;20394;-76
2023/08/11 01:57:02;;;;;;;;;;;14.80;99.90;;;;;;5072759;28;20048;-76
2023/08/11 01:59:29;;;;;;;1.60;1.50;;;14.80;99.90;;;;;;5089322;28;19927;-76
2023/08/11 02:01:54;;;;;;;1.80;1.52;;;14.80;99.90;;;;;;5088656;28;20127;-76
2023/08/11 02:04:20;;;;;;;1.90;1.52;;;14.80;99.90;;;;;;5088786;28;20131;-76
2023/08/11 02:06:46;;;;;;;2.67;1.70;;;14.90;99.90;;;;;;5088341;28;20162;-76
2023/08/11 02:09:12;;;;;;;1.80;1.63;;;14.90;99.90;;;;;;5088413;28;20113;-76
2023/08/11 02:11:39;;;;;;;2.28;1.58;;;14.90;99.90;;;;;;5089287;28;20042;-76
2023/08/11 02:14:05;;;;;;;2.00;1.80;;;14.90;99.90;;;;;;5088798;28;20047;-76
2023/08/11 02:16:31;;;;;;;2.10;1.90;;;14.90;99.90;;;;;;5088627;28;20876;-76
2023/08/11 02:18:58;;;;;;;2.10;1.90;;;14.90;99.90;;;;;;5092516;28;20083;-76
2023/08/11 02:21:26;;;;;;;2.60;1.90;;;15.00;99.90;;;;;;5092139;28;20036;-76
2023/08/11 02:23:52;;;;;;;2.30;2.00;;;15.00;99.90;;;;;;5091931;28;20077;-76
2023/08/11 02:26:17;;;;;;;2.33;1.80;;;14.90;99.90;;;;;;5058658;28;20036;-76
2023/08/11 02:28:43;;;;;;;2.00;1.80;;;14.90;99.90;;;;;;5075555;28;20092;-77
2023/08/11 02:31:09;;;;;;;2.22;1.73;;;14.90;99.90;;;;;;5126664;27;20043;-77
2023/08/11 02:33:35;;;;;;;;;;;14.90;99.90;;;;;;5092147;28;20372;-77
2023/08/11 02:36:01;;;;;;;1.83;1.52;;;14.90;99.90;;;;;;5123050;27;20019;-76
2023/08/11 02:38:27;;;;;;;2.20;2.00;;;14.90;99.90;;;;;;5074688;28;20126;-77
2023/08/11 02:40:52;;;;;;;3.72;1.98;;;14.90;99.90;;;;;;5089296;28;20052;-77
2023/08/11 02:43:18;;;;;;;2.33;1.80;;;14.90;99.90;;;;;;5074959;28;20048;-77
2023/08/11 02:45:44;;;;;;;2.38;1.98;;;15.00;99.90;;;;;;5091181;28;20043;-76
2023/08/11 02:48:09;;;;;;;2.30;1.90;;;15.00;99.90;;;;;;5091235;28;20032;-76
2023/08/11 02:50:35;;;;;;;2.08;1.80;;;15.00;99.90;;;;;;5092293;28;20482;-76
2023/08/11 02:53:01;;;;;;;2.15;1.85;;;14.90;99.90;;;;;;5092793;28;20170;-77
2023/08/11 02:55:26;;;;;;;2.53;1.75;;;14.90;99.90;;;;;;5075438;28;20044;-76
2023/08/11 02:57:52;;;;;;;2.50;2.15;;;14.90;99.90;;;;;;5092269;28;20042;-76
2023/08/11 03:00:18;;;;;;;2.00;1.70;;;14.90;99.90;;;;;;5091979;28;20035;-76
2023/08/11 03:02:47;;;;;;;2.50;2.10;;;14.90;99.90;;;;;;5092077;28;20093;-76
2023/08/11 03:05:16;;;;;;;2.30;1.98;;;14.80;99.90;;;;;;5092026;28;20051;-76
2023/08/11 03:07:43;;;;;;;2.22;1.90;;;14.90;99.90;;;;;;5091858;28;20386;-76
2023/08/11 03:10:09;;;;;;;3.17;2.00;;;14.90;99.90;;;;;;5092064;28;20111;-76
2023/08/11 03:12:36;;;;;;;2.55;2.10;;;14.90;99.90;;;;;;5087617;28;20044;-76
2023/08/11 03:15:05;;;;;;;2.72;2.05;;;14.90;99.90;;;;;;5091653;28;20709;-76
2023/08/11 03:17:30;;;;;;;3.17;2.20;;;14.90;99.90;;;;;;5075004;28;20363;-76
2023/08/11 03:19:56;;;;;;;2.53;2.30;;;14.90;99.90;;;;;;5091203;28;20047;-76
2023/08/11 03:22:22;;;;;;;2.30;1.92;;;14.90;99.90;;;;;;5091652;28;20048;-76
2023/08/11 03:24:48;;;;;;;2.40;2.05;;;14.90;99.90;;;;;;5091326;28;20044;-76
2023/08/11 03:27:17;;;;;;;2.58;1.98;;;14.90;99.90;;;;;;5091712;28;20073;-76
2023/08/11 03:29:43;;;;;;;2.00;1.80;;;14.90;99.90;;;;;;5073827;28;20043;-76
2023/08/11 03:32:09;;;;;;;2.70;2.28;;;14.90;99.90;;;;;;5091884;28;20040;-77
2023/08/11 03:34:34;;;;;;;2.60;2.10;;;14.90;99.90;;;;;;5090901;28;20048;-77
2023/08/11 03:37:00;;;;;;;2.20;2.00;;;14.90;99.90;;;;;;5073626;28;20097;-77
2023/08/11 03:39:26;;;;;;;2.30;2.10;;;14.90;99.90;;;;;;5107968;28;20717;-77
2023/08/11 03:41:52;;;;;;;2.13;1.85;;;14.90;99.90;;;;;;5091430;28;20048;-77
2023/08/11 03:44:18;;;;;;;2.55;2.20;;;14.90;99.90;;;;;;5091020;28;20448;-76
2023/08/11 03:46:44;;;;;;;3.38;2.45;;;14.90;99.90;;;;;;5090981;28;20044;-76
2023/08/11 03:49:11;;;;;;;2.58;2.30;;;14.90;99.90;;;;;;5074173;28;20092;-76
2023/08/11 03:51:37;;;;;;;2.38;2.15;;;14.90;99.90;;;;;;5090902;28;20483;-76
2023/08/11 03:54:03;;;;;;;2.35;2.00;;;14.90;99.90;;;;;;5091348;28;20121;-76
2023/08/11 03:56:29;;;;;;;3.00;2.38;;;14.90;99.90;;;;;;5091127;28;20086;-76
2023/08/11 03:58:55;;;;;;;2.42;2.10;;;14.90;99.90;;;;;;5090795;28;20044;-76
2023/08/11 04:01:21;;;;;;;2.55;2.35;;;14.90;99.90;;;;;;5071237;28;20044;-76
2023/08/11 04:03:47;;;;;;;2.47;2.13;;;14.80;99.90;;;;;;5090530;28;20048;-76
2023/08/11 04:06:12;;;;;;;2.47;2.25;;;14.80;99.90;;;;;;5106503;28;20060;-76
2023/08/11 04:08:38;;;;;;;2.80;2.45;;;14.90;99.90;;;;;;5090166;28;20036;-76
2023/08/11 04:11:04;;;;;;;2.83;2.17;;;14.90;99.90;;;;;;5090021;28;20042;-77
2023/08/11 04:13:29;;;;;;;2.55;2.10;;;14.90;99.90;;;;;;5090733;28;20048;-77
2023/08/11 04:15:55;;;;;;;2.83;2.28;;;14.90;99.90;;;;;;5090566;28;20046;-77
2023/08/11 04:18:21;;;;;;;2.53;2.20;;;14.90;99.90;;;;;;5090345;28;20483;-76
2023/08/11 04:20:47;;;;;;;2.00;1.80;;;14.90;99.90;;;;;;5090351;28;20052;-77
2023/08/11 04:23:13;;;;;;;2.17;1.98;;;14.90;99.90;;;;;;5090179;28;20039;-77
2023/08/11 04:25:39;;;;;;;3.05;2.30;;;14.90;99.90;;;;;;5089550;28;20086;-77
2023/08/11 04:28:05;;;;;;;2.30;2.00;;;14.90;99.90;;;;;;5073148;28;20036;-77
2023/08/11 04:30:32;;;;;;;2.67;1.98;;;14.90;99.90;;;;;;5089910;28;20111;-77
2023/08/11 04:32:58;;;;;;;2.60;2.38;;;14.90;99.90;;;;;;5087506;28;20047;-77
2023/08/11 04:35:25;;;;;;;2.25;2.05;;;14.90;99.90;;;;;;5053032;28;20036;-77
2023/08/11 04:37:51;;;;;;;2.58;2.20;;;15.00;99.90;;;;;;5087750;28;20045;-77
2023/08/11 04:40:17;;;;;;;2.38;2.17;;;15.00;99.90;;;;;;5068401;28;20502;-77
2023/08/11 04:42:44;;;;;;;2.53;2.33;;;15.00;99.90;;;;;;5087615;28;20062;-77
2023/08/11 04:45:10;;;;;;;2.95;2.20;;;15.00;99.90;;;;;;5088581;28;20028;-77
2023/08/11 04:47:35;;;;;;;;;;;15.00;99.90;;;;;;5090390;28;20119;-76
2023/08/11 04:50:01;;;;;;;2.50;2.20;;;15.10;99.90;;;;;;5088797;28;20446;-76
2023/08/11 04:52:27;;;;;;;2.50;2.30;;;15.10;99.90;;;;;;5073003;28;20040;-76
2023/08/11 04:54:53;;;;;;;3.15;2.50;;;15.10;99.90;;;;;;5088406;28;20048;-76
2023/08/11 04:57:19;;;;;;;2.65;2.38;;;15.20;99.90;;;;;;5087274;28;20055;-77
2023/08/11 04:59:45;;;;;;;2.92;2.22;;;15.20;99.90;;;;;;5062221;28;20062;-77
2023/08/11 05:02:12;;;;;;;2.75;2.28;;;15.30;99.90;;;;;;5088327;28;20050;-77
2023/08/11 05:04:38;;;;;;;2.28;2.08;;;15.30;99.90;;;;;;5087863;28;20047;-76
2023/08/11 05:07:06;;;;;;;3.47;2.47;;;15.40;99.90;;;;;;5100271;28;20048;-77
2023/08/11 05:09:32;;;;;;;2.95;2.65;;;15.40;99.90;;;;;;5088676;28;20056;-77
2023/08/11 05:11:58;;;;;;;3.00;2.28;;;15.50;99.90;;;;;;5088613;28;20521;-78
2023/08/11 05:14:24;;;;;;;2.63;2.20;;;15.50;99.90;;;;;;5088295;28;20044;-78
2023/08/11 05:16:49;;;;;;;2.70;2.10;;;15.50;99.90;;;;;;5084849;28;20058;-78
2023/08/11 05:19:15;;;;;;;2.35;1.92;;;15.60;99.90;;;;;;5070861;28;20028;-78
2023/08/11 05:21:41;;;;;;;2.72;2.28;;;15.60;99.90;;;;;;5088920;28;20812;-77
2023/08/11 05:24:07;;;;;;;2.88;2.17;;;15.70;99.90;;;;;;5102099;27;20040;-78
2023/08/11 05:26:33;;;;;;;2.20;2.00;;;15.70;99.90;;;;;;5051250;28;20048;-77
2023/08/11 05:28:58;;;;;;;2.50;1.90;;;15.70;99.90;;;;;;5085501;28;20044;-78
2023/08/11 05:31:24;;;;;;;2.00;1.70;;;15.80;99.90;;;;;;5089083;28;20063;-77
2023/08/11 05:33:52;;;;;;;2.00;1.80;;;15.90;99.90;;;;;;5088542;28;20035;-77
2023/08/11 05:36:18;;;;;;;2.30;2.00;;;15.90;99.90;;;;;;5089082;28;20436;-77
2023/08/11 05:38:45;;;;;;;2.35;2.10;;;16.00;99.90;;;;;;5088850;28;20040;-78
2023/08/11 05:41:11;;;;;;;3.92;2.30;;;16.00;99.90;;;;;;5088065;28;20040;-71
2023/08/11 05:43:36;;;;;;;2.10;1.90;;;16.10;99.90;;;;;;5087167;28;20071;-77
2023/08/11 05:46:06;;;;;;;2.42;2.10;;;16.20;99.90;;;;;;5070463;28;20036;-77
2023/08/11 05:48:32;;;;;;;2.20;2.00;;;16.20;99.90;;;;;;5072040;28;20063;-78
2023/08/11 05:50:58;;;;;;;;;;;16.30;99.90;;;;;;5089072;28;20048;-77
2023/08/11 05:53:24;;;;;;;2.53;2.22;;;16.40;99.90;;;;;;5126475;27;19920;-77
2023/08/11 05:55:50;;;;;;;2.40;2.00;;;16.40;99.90;;;;;;5109619;28;20051;-77
2023/08/11 05:58:16;;;;;;;2.80;2.10;;;16.50;99.90;;;;;;5057275;28;20069;-77
2023/08/11 06:00:42;;;;;;;2.53;2.10;;;16.50;99.90;;;;;;5087357;28;20131;-77
2023/08/11 06:03:07;;;;;;;2.30;1.92;;;16.60;99.90;;;;;;5062805;28;20083;-78
2023/08/11 06:05:33;;;;;;;2.38;2.10;;;16.70;99.90;;;;;;5075253;28;20082;-77
2023/08/11 06:07:59;;;;;;;2.03;1.83;;;16.80;99.90;;;;;;5090829;28;20056;-77
2023/08/11 06:10:26;;;;;;;2.40;1.92;;;16.80;99.90;;;;;;5097654;28;20040;-78
2023/08/11 06:12:52;;;;;;;2.05;1.73;;;16.90;99.90;;;;;;5090105;28;20047;-77
2023/08/11 06:15:17;;;;;;;;;;;17.00;99.90;;;;;;5092847;28;20048;-77
2023/08/11 06:17:49;;;;;;;3.20;2.00;;;17.10;99.90;;;;;;5091366;28;20458;-77
2023/08/11 06:20:18;;;;;;;3.75;2.17;;;17.20;99.90;;;;;;5089423;28;20051;-77
2023/08/11 06:22:46;;;;;;;1.85;1.65;;;17.30;99.90;;;;;;5074353;28;20079;-79
2023/08/11 06:25:15;;;;;;;2.40;1.73;;;17.40;99.90;;;;;;5092119;28;20131;-79
2023/08/11 06:27:42;;;;;;;2.03;1.83;;;17.50;99.90;;;;;;5076060;28;20044;-79
2023/08/11 06:30:09;;;;;;;2.58;2.17;;;17.60;99.90;;;;;;5108708;28;20115;-79
2023/08/11 06:32:35;;;;;;;3.65;2.10;;;17.70;99.90;;;;;;5091455;28;20039;-79
2023/08/11 06:35:01;;;;;;;2.33;1.90;;;17.80;99.90;;;;;;5089361;28;20522;-79
2023/08/11 06:37:27;;;;;;;;;;;17.90;99.90;;;;;;5088955;28;20036;-79
2023/08/11 06:39:54;;;;;;;3.20;1.60;;;18.10;99.90;;;;;;5088184;28;19924;-78
2023/08/11 06:42:20;;;;;;;3.88;1.88;;;18.20;99.90;;;;;;5068887;28;20040;-77
2023/08/11 06:44:45;;;;;;;;;;;18.40;99.90;;;;;;5097771;28;20049;-77
2023/08/11 06:47:11;;;;;;;3.15;2.47;;;18.40;99.90;;;;;;5087235;28;20014;-76
2023/08/11 06:49:37;;;;;;;;;;;18.60;99.90;;;;;;5068932;28;20036;-77
2023/08/11 06:52:02;;;;;;;3.00;1.70;;;18.70;99.90;;;;;;5091145;28;20360;-77
2023/08/11 06:54:28;;;;;;;;;;;18.80;99.90;;;;;;5075289;28;20043;-77
2023/08/11 06:56:54;;;;;;;2.22;1.95;;;18.90;99.90;;;;;;5091194;28;20005;-77
2023/08/11 06:59:19;;;;;;;;;;;19.10;1.00;;;;;;5091579;28;20486;-77
2023/08/11 07:01:45;;;;;;;3.72;1.70;;;19.20;1.00;;;;;;5091631;28;20401;-76
2023/08/11 07:04:10;;;;;;;;;;;19.40;1.00;;;;;;5090909;28;20115;-77
2023/08/11 07:06:36;;;;;;;2.60;2.10;;;19.40;1.00;;;;;;5091473;28;19920;-76
2023/08/11 07:09:02;;;;;;;;;;;19.60;99.90;;;;;;5057635;28;20044;-76
2023/08/11 07:11:27;;;;;;;2.00;1.80;;;19.70;99.90;;;;;;5090664;28;19923;-76
2023/08/11 07:13:53;;;;;;;;;;;19.80;49.00;;;;;;5074159;28;20100;-76
2023/08/11 07:16:19;;;;;;;2.25;2.00;;;19.90;1.00;;;;;;5074105;28;19948;-77
2023/08/11 07:18:44;;;;;;;;;;;20.10;99.90;;;;;;5091709;28;20263;-77
2023/08/11 07:21:10;;;;;;;3.15;2.05;;;20.20;99.90;;;;;;5090933;28;20378;-77
2023/08/11 07:23:36;;;;;;;;;;;20.30;99.90;;;;;;5091479;28;20047;-77
2023/08/11 07:26:01;;;;;;;2.05;1.83;;;20.40;99.90;;;;;;5118092;27;19927;-76
2023/08/11 07:28:27;;;;;;;;;;;20.60;30.40;;;;;;5091608;28;20817;-76
2023/08/11 07:30:53;;;;;;;2.55;2.10;;;20.70;1.00;;;;;;5125240;27;19970;-76
2023/08/11 07:33:18;;;;;;;;;;;20.90;99.90;;;;;;5075162;28;20038;-76
2023/08/11 07:35:44;;;;;;;2.13;1.60;;;21.10;1.00;;;;;;5090154;28;19922;-77
2023/08/11 07:38:10;;;;;;;;;;;21.20;88.20;;;;;;5102049;27;20116;-76
2023/08/11 07:40:36;;;;;;;2.75;2.17;;;21.30;99.90;;;;;;5088947;28;19916;-77
2023/08/11 07:43:01;;;;;;;;;;;21.50;1.00;;;;;;5083351;28;20486;-77
2023/08/11 07:45:27;;;;;;;2.33;2.10;;;21.60;68.10;;;;;;5087829;28;19966;-76
2023/08/11 07:47:53;;;;;;;2.25;2.05;;;21.60;1.00;;;;;;5089505;28;20043;-76
2023/08/11 07:50:19;;;;;;;2.70;1.80;;;21.70;1.00;;;;;;5089104;28;20383;-76
2023/08/11 07:52:45;;;;;;;2.10;1.90;;;21.80;99.90;;;;;;5089789;28;20126;-76
2023/08/11 07:55:11;;;;;;;2.30;2.00;;;21.90;99.90;;;;;;5088729;28;20449;-76
2023/08/11 07:57:37;;;;;;;1.90;1.67;;;22.00;99.90;;;;;;5090474;28;20048;-77
2023/08/11 08:00:05;;;;;;;2.42;1.40;;;22.20;99.90;;;;;;5090255;28;20489;-77
2023/08/11 08:02:30;;;;;;;2.85;2.00;;;22.30;99.90;;;;;;5089840;28;20071;-77
2023/08/11 08:04:56;;;;;;;2.42;2.05;;;22.40;6.40;;;;;;5073032;28;20087;-77
2023/08/11 08:07:22;;;;;;;2.50;1.90;;;22.40;1.00;;;;;;5124091;27;20570;-77
2023/08/11 08:09:47;;;;;;;2.60;2.10;;;22.50;43.30;;;;;;5072777;28;20043;-77
2023/08/11 08:12:15;;;;;;;2.35;2.15;;;22.50;1.00;;;;;;5088191;28;20032;-77
2023/08/11 08:14:42;;;;;;;3.10;2.35;;;22.60;99.90;;;;;;5089324;28;20131;-77
2023/08/11 08:17:08;;;;;;;2.90;2.13;;;22.70;99.90;;;;;;5084293;28;20047;-77
2023/08/11 08:19:33;;;;;;;4.32;2.40;;;22.90;99.90;;;;;;5088986;28;20052;-77
2023/08/11 08:21:59;;;;;;;2.13;1.92;;;22.90;99.90;;;;;;5089297;28;20376;-77
2023/08/11 08:24:25;;;;;;;2.53;1.90;;;23.10;99.90;;;;;;5089428;28;20044;-76
2023/08/11 08:26:51;;;;;;;2.50;2.10;;;23.30;99.90;;;;;;5089777;28;20036;-77
2023/08/11 08:29:17;;;;;;;1.70;1.50;;;23.40;99.90;;;;;;5089601;28;20059;-77
2023/08/11 08:31:42;;;;;;;2.10;1.50;;;23.60;99.90;;;;;;5089510;28;20075;-77
2023/08/11 08:34:08;;;;;;;2.53;1.80;;;23.70;99.90;;;;;;5072747;28;20039;-77
2023/08/11 08:36:34;;;;;;;3.03;2.13;;;23.80;99.90;;;;;;5089402;28;20039;-77
2023/08/11 08:38:59;;;;;;;2.58;1.98;;;23.90;99.90;;;;;;5089753;28;20068;-77
2023/08/11 08:41:29;;;;;;;3.40;2.22;;;24.00;62.20;;;;;;5089912;28;20180;-77
2023/08/11 08:43:55;;;;;;;3.60;2.22;;;24.20;99.90;;;;;;5089281;28;20051;-77
2023/08/11 08:46:24;;;;;;;3.28;2.45;;;24.30;56.00;;;;;;5099899;28;20033;-77
2023/08/11 08:49:04;;;;;;;3.40;1.98;;;24.40;65.60;;;;;;5077681;28;20387;-76
2023/08/11 08:51:30;;;;;;;3.53;2.00;;;24.60;34.60;;;;;;5089721;28;20332;-76
2023/08/11 08:53:56;;;;;;;2.28;1.65;;;24.70;1.00;;;;;;5075198;28;20118;-77
2023/08/11 08:56:22;;;;;;;2.45;1.90;;;24.80;1.00;;;;;;5089542;28;20178;-77
2023/08/11 08:58:48;;;;;;;2.30;1.60;;;24.80;1.00;;;;;;5088976;28;20443;-77
2023/08/11 09:01:14;;;;;;;2.00;1.60;;;24.80;1.00;;;;;;5072138;28;20137;-77
2023/08/11 09:03:42;;;;;;;2.53;1.80;;;25.00;1.00;;;;;;5089194;28;20048;-76
2023/08/11 09:06:09;;;;;;;2.05;1.52;;;25.10;1.00;;;;;;5105718;28;20114;-76
2023/08/11 09:08:39;;;;;;;2.40;1.83;;;25.20;1.00;;;;;;5089020;28;20068;-77
2023/08/11 09:11:05;;;;;;;2.17;1.55;;;25.20;1.00;;;;;;5072210;28;20411;-77
2023/08/11 09:13:33;;;;;;;2.65;1.65;;;25.30;1.00;;;;;;5105913;28;20047;-77
2023/08/11 09:16:00;;;;;;;2.78;1.40;;;25.50;1.00;;;;;;5088820;28;20048;-77
2023/08/11 09:18:26;;;;;;;2.00;1.50;;;25.60;1.00;;;;;;5106476;28;20044;-77
2023/08/11 09:20:52;;;;;;;2.33;1.50;;;25.70;1.00;;;;;;5072406;28;20052;-77
2023/08/11 09:23:19;;;;;;;1.73;1.40;;;25.80;99.90;;;;;;5088697;28;20046;-77
2023/08/11 09:25:45;;;;;;;2.35;1.80;;;25.90;99.90;;;;;;5088637;28;20131;-76
2023/08/11 09:28:12;;;;;;;2.30;1.40;;;25.90;99.90;;;;;;5088601;28;20111;-77
2023/08/11 09:30:38;;;;;;;1.65;1.40;;;26.10;99.90;;;;;;5089167;28;20111;-77
2023/08/11 09:33:07;;;;;;;2.05;1.60;;;26.00;99.90;;;;;;5071592;28;20173;-77
2023/08/11 09:35:33;;;;;;;2.00;1.25;;;26.00;99.90;;;;;;5072081;28;20048;-77
2023/08/11 09:37:59;;;;;;;3.03;1.95;;;26.10;99.90;;;;;;5071791;28;20440;-77
2023/08/11 09:40:26;;;;;;;2.13;1.52;;;26.00;99.90;;;;;;5089081;28;20036;-77
2023/08/11 09:42:56;;;;;;;2.40;1.60;;;26.20;99.90;;;;;;5089018;28;20491;-77
2023/08/11 09:45:23;;;;;;;4.22;1.60;;;26.20;99.90;;;;;;5071894;28;20040;-77
2023/08/11 09:47:49;;;;;;;3.70;1.80;;;26.30;99.90;;;;;;5088761;28;20050;-77
2023/08/11 09:50:15;;;;;;;2.85;1.70;;;26.40;99.90;;;;;;5071899;28;20040;-77
2023/08/11 09:52:42;;;;;;;2.28;1.45;;;26.40;99.90;;;;;;5071744;28;20075;-77
2023/08/11 09:55:12;;;;;;;1.80;1.27;;;26.50;99.90;;;;;;5071823;28;20561;-77
2023/08/11 09:57:41;;;;;;;2.40;1.40;;;26.70;99.90;;;;;;5088844;28;20515;-77
2023/08/11 10:00:14;;;;;;;2.55;1.50;;;26.80;99.90;;;;;;5089086;28;20047;-77
2023/08/11 10:03:10;;;;;;;2.38;1.40;;;26.90;99.90;;;;;;5088436;28;20048;-77
2023/08/11 10:05:41;;;;;;;3.35;1.40;;;26.90;99.90;;;;;;5081274;28;20059;-77
2023/08/11 10:08:11;;;;;;;3.10;1.45;;;26.90;99.90;;;;;;5088137;28;20066;-77
2023/08/11 10:10:38;;;;;;;1.95;1.33;;;26.90;99.90;;;;;;5089143;28;20056;-77
2023/08/11 10:13:08;;;;;;;1.67;1.40;;;26.90;99.90;;;;;;5088424;28;20044;-77
2023/08/11 10:15:35;;;;;;;2.17;1.52;;;26.80;99.90;;;;;;5071534;28;20449;-77
2023/08/11 10:18:02;;;;;;;2.20;1.40;;;26.70;99.90;;;;;;5087828;28;20052;-77
2023/08/11 10:20:29;;;;;;;1.73;1.40;;;26.70;99.90;;;;;;5088659;28;20036;-77
2023/08/11 10:22:56;;;;;;;2.08;1.23;;;26.60;99.90;;;;;;5071693;28;20076;-77
2023/08/11 10:25:23;;;;;;;1.52;1.30;;;26.60;99.90;;;;;;5071552;28;20075;-77
2023/08/11 10:27:49;;;;;;;2.53;1.40;;;26.70;99.90;;;;;;5071381;28;20694;-77
2023/08/11 10:30:15;;;;;;;2.28;1.60;;;27.00;99.90;;;;;;5088479;28;20063;-76
2023/08/11 10:32:41;;;;;;;2.42;1.60;;;27.00;99.90;;;;;;5088406;28;20054;-77
2023/08/11 10:35:13;;;;;;;1.77;1.30;;;27.20;99.90;;;;;;5087916;28;20052;-77
2023/08/11 10:37:39;;;;;;;1.98;1.17;;;27.20;99.90;;;;;;5088351;28;20135;-77
2023/08/11 10:40:10;;;;;;;1.65;1.27;;;27.30;99.90;;;;;;5107566;28;20593;-77
2023/08/11 10:42:37;;;;;;;1.75;1.48;;;27.40;99.90;;;;;;5074760;28;20128;-76
2023/08/11 10:45:11;;;;;;;2.15;1.35;;;27.50;99.90;;;;;;5091383;28;20032;-77
2023/08/11 10:47:38;;;;;;;1.77;1.25;;;27.60;99.90;;;;;;5074478;28;20040;-77
2023/08/11 10:50:08;;;;;;;3.03;1.50;;;27.60;99.90;;;;;;5092199;28;20043;-78
2023/08/11 10:52:34;;;;;;;1.88;1.40;;;27.70;99.90;;;;;;5091571;28;20114;-77
2023/08/11 10:55:02;;;;;;;1.50;1.27;;;27.80;99.90;;;;;;5091485;28;20125;-77
2023/08/11 10:57:30;;;;;;;2.03;1.23;;;27.90;99.90;;;;;;5091546;28;20071;-77
2023/08/11 10:59:56;;;;;;;2.25;1.58;;;28.10;99.90;;;;;;5091683;28;20044;-77
2023/08/11 11:02:22;;;;;;;1.67;1.15;;;28.20;99.90;;;;;;5091492;28;20442;-77
2023/08/11 11:04:49;;;;;;;2.08;1.38;;;28.30;99.90;;;;;;5108222;28;20036;-77
2023/08/11 11:07:15;;;;;;;1.60;1.10;;;28.40;99.90;;;;;;5091370;28;20056;-77
2023/08/11 11:09:41;;;;;;;1.80;1.27;;;28.50;99.90;;;;;;5074442;28;20127;-77
2023/08/11 11:12:07;;;;;;;2.42;1.40;;;28.50;99.90;;;;;;5074708;28;20039;-77
2023/08/11 11:14:32;;;;;;;1.67;1.10;;;28.70;92.70;;;;;;5074165;28;20045;-77
2023/08/11 11:16:59;;;;;;;2.00;1.30;;;28.80;94.20;;;;;;5091017;28;20111;-77
2023/08/11 11:19:26;;;;;;;2.15;1.30;;;28.90;94.90;;;;;;5090930;28;20143;-77
2023/08/11 11:21:52;;;;;;;1.45;1.10;;;29.10;91.20;;;;;;5074965;28;20047;-77
2023/08/11 11:24:18;;;;;;;1.52;1.00;;;29.00;99.90;;;;;;5073761;28;20048;-78
2023/08/11 11:26:44;;;;;;;1.95;1.20;;;28.90;95.20;;;;;;5091204;28;20040;-78
2023/08/11 11:29:10;;;;;;;1.83;1.30;;;28.50;80.10;;;;;;5074129;28;20039;-78
2023/08/11 11:31:38;;;;;;;1.73;1.20;;;28.40;84.60;;;;;;5091129;28;20463;-78
2023/08/11 11:34:05;;;;;;;2.17;1.20;;;28.30;97.80;;;;;;5090878;28;20048;-77
2023/08/11 11:36:31;;;;;;;1.83;1.00;;;28.30;88.90;;;;;;5090639;28;20419;-77
2023/08/11 11:38:57;;;;;;;1.75;1.17;;;28.50;88.80;;;;;;5073853;28;20048;-77
2023/08/11 11:41:23;;;;;;;2.53;1.63;;;28.60;62.40;;;;;;5073619;28;20056;-77
2023/08/11 11:43:49;;;;;;;1.83;1.13;;;28.60;99.90;;;;;;5073515;28;20051;-78
2023/08/11 11:46:17;;;;;;;1.98;1.40;;;28.70;92.10;;;;;;5090640;28;20478;-77
2023/08/11 11:48:47;;;;;;;1.85;1.27;;;28.80;76.90;;;;;;5124482;27;20174;-77
2023/08/11 11:51:15;;;;;;;1.38;1.20;;;28.90;95.00;;;;;;5089872;28;20044;-77
2023/08/11 11:53:41;;;;;;;3.05;1.42;;;28.80;65.10;;;;;;5090206;28;20047;-78
2023/08/11 11:56:07;;;;;;;1.52;1.25;;;28.70;65.30;;;;;;5107491;28;20486;-78
2023/08/11 11:58:37;;;;;;;2.55;1.40;;;28.80;38.00;;;;;;5089120;28;20041;-78
2023/08/11 12:01:25;;;;;;;1.90;1.38;;;28.80;36.30;;;;;;5090126;28;20059;-78
2023/08/11 12:03:52;;;;;;;2.80;1.10;;;29.10;32.60;;;;;;5068651;28;20111;-77
2023/08/11 12:06:19;;;;;;;1.50;1.20;;;29.20;47.90;;;;;;5090275;28;20108;-79
2023/08/11 12:08:48;;;;;;;1.65;1.20;;;29.40;36.20;;;;;;5090202;28;20102;-77
2023/08/11 12:11:17;;;;;;;2.65;1.30;;;29.10;12.40;;;;;;5089826;28;20495;-77
2023/08/11 12:13:44;;;;;;;1.63;1.17;;;29.00;30.20;;;;;;5073483;28;20052;-77
2023/08/11 12:16:12;;;;;;;2.50;1.33;;;29.20;33.40;;;;;;5090020;28;20044;-77
2023/08/11 12:18:39;;;;;;;2.08;1.23;;;29.40;42.00;;;;;;5089963;28;20131;-78
2023/08/11 12:21:06;;;;;;;1.48;1.10;;;29.30;14.30;;;;;;5106894;28;20055;-77
2023/08/11 12:23:32;;;;;;;1.73;1.20;;;29.10;14.00;;;;;;5089586;28;20118;-77
2023/08/11 12:25:58;;;;;;;1.83;1.10;;;29.00;8.40;;;;;;5089741;28;20127;-77
2023/08/11 12:28:24;;;;;;;1.40;1.05;;;29.00;42.10;;;;;;5089455;28;20089;-77
2023/08/11 12:30:50;;;;;;;1.85;1.30;;;29.30;75.30;;;;;;5089849;28;20047;-77
2023/08/11 12:33:16;;;;;;;3.25;1.40;;;29.40;23.70;;;;;;5089586;28;20036;-77
2023/08/11 12:35:43;;;;;;;2.08;1.38;;;29.40;8.50;;;;;;5089681;28;20103;-78
2023/08/11 12:38:15;;;;;;;2.15;1.20;;;29.00;13.40;;;;;;5090615;28;20036;-77
2023/08/11 12:40:45;;;;;;;1.55;1.25;;;29.00;30.60;;;;;;5073899;28;20039;-77
2023/08/11 12:43:11;;;;;;;3.53;1.38;;;28.90;24.30;;;;;;5089265;28;20044;-77
2023/08/11 12:45:40;;;;;;;2.25;1.25;;;28.70;31.60;;;;;;5069192;28;20046;-77
2023/08/11 12:48:06;;;;;;;2.17;1.05;;;28.60;66.60;;;;;;5086435;28;20047;-78
2023/08/11 12:50:33;;;;;;;1.50;1.10;;;28.80;89.40;;;;;;5081457;28;20040;-78
2023/08/11 12:53:00;;;;;;;2.95;1.23;;;28.70;74.20;;;;;;5085813;28;20106;-78